Time;durP1;ratioP1;P1;durP2;ratioP2;P2;SDS_P1;SDS_P2;PMS_P1;PMS_P2;Temp;Humidity;BMP_temperature;BMP_pressure;BME280_temperature;BME280_humidity;BME280_pressure;Samples;Min_cycle;Max_cycle;Signal;HPM_P1;HPM_P2
2023/02/23 00:01:37;;;;;;;89.35;55.08;;;7.70;99.90;;;;;;7366978;19;20364;-65
2023/02/23 00:04:04;;;;;;;96.10;56.13;;;7.70;99.90;;;;;;7366910;19;20626;-64
2023/02/23 00:06:35;;;;;;;95.82;56.17;;;7.60;99.90;;;;;;7370003;19;20018;-65
2023/02/23 00:09:11;;;;;;;91.47;56.42;;;7.70;99.90;;;;;;7371279;19;20014;-65
2023/02/23 00:11:37;;;;;;;88.00;56.17;;;7.70;99.90;;;;;;7365186;19;20018;-65
2023/02/23 00:14:04;;;;;;;95.50;57.50;;;7.70;99.90;;;;;;7366680;19;20022;-66
2023/02/23 00:16:30;;;;;;;94.68;57.08;;;7.70;99.90;;;;;;7368700;19;20019;-66
2023/02/23 00:18:59;;;;;;;98.68;58.88;;;7.60;99.90;;;;;;7372979;19;20030;-66
2023/02/23 00:21:31;;;;;;;97.05;57.97;;;7.60;99.90;;;;;;7373421;19;20014;-65
2023/02/23 00:24:09;;;;;;;96.78;56.00;;;7.60;99.90;;;;;;7377775;19;20018;-65
2023/02/23 00:26:38;;;;;;;105.63;60.63;;;7.60;99.90;;;;;;7378081;19;20021;-65
2023/02/23 00:29:16;;;;;;;105.45;59.42;;;7.60;99.90;;;;;;7378790;19;20042;-66
2023/02/23 00:31:46;;;;;;;104.97;59.97;;;7.60;99.90;;;;;;7377364;19;20049;-66
2023/02/23 00:34:19;;;;;;;105.20;59.92;;;7.60;99.90;;;;;;7377692;19;20085;-66
2023/02/23 00:36:50;;;;;;;103.38;56.83;;;7.50;99.90;;;;;;7376618;19;20022;-65
2023/02/23 00:39:23;;;;;;;103.30;58.58;;;7.50;99.90;;;;;;7381192;19;20779;-65
2023/02/23 00:41:51;;;;;;;105.90;59.90;;;7.50;99.90;;;;;;7377422;19;20037;-65
2023/02/23 00:44:19;;;;;;;101.70;56.35;;;7.40;99.90;;;;;;7377053;19;20015;-66
2023/02/23 00:46:50;;;;;;;101.82;59.35;;;7.40;99.90;;;;;;7379928;19;20776;-66
2023/02/23 00:49:18;;;;;;;109.40;61.22;;;7.40;99.90;;;;;;7380141;19;20018;-65
2023/02/23 00:51:44;;;;;;;107.25;60.67;;;7.40;99.90;;;;;;7375449;19;20023;-66
2023/02/23 00:54:12;;;;;;;106.72;59.67;;;7.40;99.90;;;;;;7378918;19;20113;-65
2023/02/23 00:56:39;;;;;;;100.70;57.55;;;7.40;99.90;;;;;;7375475;19;20592;-65
2023/02/23 00:59:06;;;;;;;104.13;59.88;;;7.40;99.90;;;;;;7381472;19;20535;-65
2023/02/23 01:01:37;;;;;;;100.57;57.63;;;7.40;99.90;;;;;;7376361;19;20015;-65
2023/02/23 01:04:05;;;;;;;109.10;62.25;;;7.40;99.90;;;;;;7378119;19;20097;-65
2023/02/23 01:06:33;;;;;;;103.55;59.42;;;7.40;99.90;;;;;;7379940;19;20090;-65
2023/02/23 01:09:04;;;;;;;106.65;59.95;;;7.40;99.90;;;;;;7379944;19;20897;-65
2023/02/23 01:11:30;;;;;;;108.05;63.30;;;7.40;99.90;;;;;;7378050;19;20011;-65
2023/02/23 01:14:04;;;;;;;106.93;60.17;;;7.50;99.90;;;;;;7376556;19;20102;-65
2023/02/23 01:16:34;;;;;;;120.22;66.75;;;7.50;99.90;;;;;;7376436;19;20045;-65
2023/02/23 01:19:03;;;;;;;114.28;64.40;;;7.50;99.90;;;;;;7378256;19;20026;-66
2023/02/23 01:21:35;;;;;;;114.32;65.05;;;7.50;99.90;;;;;;7374588;19;20073;-65
2023/02/23 01:24:01;;;;;;;;;;;7.50;99.90;;;;;;7379178;19;20098;-65
2023/02/23 01:26:33;;;;;;;110.95;61.92;;;7.50;99.90;;;;;;7378264;19;19925;-66
2023/02/23 01:29:07;;;;;;;113.95;65.63;;;7.60;99.90;;;;;;7378228;19;20019;-66
2023/02/23 01:31:35;;;;;;;111.90;64.63;;;7.60;99.90;;;;;;7380037;19;20022;-65
2023/02/23 01:34:10;;;;;;;111.80;63.42;;;7.60;99.90;;;;;;7373789;19;20497;-65
2023/02/23 01:36:38;;;;;;;112.07;64.22;;;7.60;99.90;;;;;;7375574;19;20019;-65
2023/02/23 01:39:17;;;;;;;110.72;65.00;;;7.60;99.90;;;;;;7376249;19;20014;-65
2023/02/23 01:41:46;;;;;;;116.70;65.20;;;7.60;99.90;;;;;;7374221;19;20019;-65
2023/02/23 01:44:18;;;;;;;120.10;65.22;;;7.60;99.90;;;;;;7373883;19;20018;-65
2023/02/23 01:46:46;;;;;;;112.63;65.10;;;7.60;99.90;;;;;;7376383;19;20039;-65
2023/02/23 01:49:29;;;;;;;116.60;64.60;;;7.60;99.90;;;;;;7378172;19;20019;-66
2023/02/23 01:52:06;;;;;;;119.57;66.55;;;7.60;99.90;;;;;;7377471;19;20636;-65
2023/02/23 01:54:40;;;;;;;111.50;62.70;;;7.60;99.90;;;;;;7378313;19;20025;-66
2023/02/23 01:57:13;;;;;;;122.23;67.90;;;7.60;99.90;;;;;;7374888;19;20493;-65
2023/02/23 01:59:48;;;;;;;120.47;64.60;;;7.60;99.90;;;;;;7376634;19;20021;-65
2023/02/23 02:02:22;;;;;;;118.97;64.53;;;7.60;99.90;;;;;;7376301;19;20386;-65
2023/02/23 02:04:50;;;;;;;130.10;66.47;;;7.60;99.90;;;;;;7367999;19;20419;-65
2023/02/23 02:07:27;;;;;;;134.65;67.25;;;7.60;99.90;;;;;;7373293;19;20738;-65
2023/02/23 02:12:43;;;;;;;131.57;66.53;;;7.60;99.90;;;;;;7375828;19;20029;-65
2023/02/23 02:15:15;;;;;;;128.90;68.07;;;7.60;99.90;;;;;;7368483;19;20021;-65
2023/02/23 02:17:47;;;;;;;132.63;66.00;;;7.60;99.90;;;;;;7375872;19;20014;-65
2023/02/23 02:20:25;;;;;;;;;;;7.60;99.90;;;;;;7374370;19;20093;-65
2023/02/23 02:23:00;;;;;;;130.15;68.50;;;7.60;99.90;;;;;;7371595;19;19930;-65
2023/02/23 02:25:33;;;;;;;123.43;66.45;;;7.60;99.90;;;;;;7373700;19;20078;-65
2023/02/23 02:28:22;;;;;;;125.43;69.75;;;7.60;99.90;;;;;;7373159;19;20010;-65
2023/02/23 02:31:09;;;;;;;121.38;66.07;;;7.60;99.90;;;;;;7372106;19;20018;-65
2023/02/23 02:33:42;;;;;;;132.13;67.78;;;7.60;99.90;;;;;;7370838;19;20475;-66
2023/02/23 02:36:17;;;;;;;134.90;69.38;;;7.60;99.90;;;;;;7371519;19;20029;-66
2023/02/23 02:39:22;;;;;;;133.75;69.03;;;7.60;99.90;;;;;;7366096;19;20029;-65
2023/02/23 02:42:25;;;;;;;122.88;67.65;;;7.60;99.90;;;;;;7370008;19;20373;-65
2023/02/23 02:44:59;;;;;;;128.75;67.13;;;7.60;99.90;;;;;;7372796;19;20056;-65
2023/02/23 02:47:41;;;;;;;134.38;69.43;;;7.60;99.90;;;;;;7371063;19;20616;-65
2023/02/23 02:50:39;;;;;;;130.00;69.70;;;7.60;99.90;;;;;;7375553;19;20017;-65
2023/02/23 02:53:13;;;;;;;135.40;68.03;;;7.60;99.90;;;;;;7374213;19;20025;-65
2023/02/23 02:55:47;;;;;;;129.25;68.20;;;7.60;99.90;;;;;;7371773;19;20078;-65
2023/02/23 02:58:16;;;;;;;125.50;69.65;;;7.60;99.90;;;;;;7373867;19;20059;-65
2023/02/23 04:19:32;;;;;;;146.30;69.47;;;7.50;99.90;;;;;;7382134;19;20026;-65
2023/02/23 04:22:00;;;;;;;143.18;68.50;;;7.60;99.90;;;;;;7376545;19;20022;-65
2023/02/23 04:24:26;;;;;;;134.98;66.50;;;7.60;99.90;;;;;;7374483;19;20473;-65
2023/02/23 04:26:52;;;;;;;146.45;69.57;;;7.60;99.90;;;;;;7378392;19;20106;-65
2023/02/23 04:29:19;;;;;;;140.40;68.80;;;7.60;99.90;;;;;;7377216;19;20500;-65
2023/02/23 04:31:46;;;;;;;132.77;68.57;;;7.60;99.90;;;;;;7377804;19;20018;-65
2023/02/23 04:34:13;;;;;;;123.25;65.05;;;7.60;99.90;;;;;;7376849;19;20027;-65
2023/02/23 04:36:39;;;;;;;131.00;63.60;;;7.60;99.90;;;;;;7374652;19;20385;-66
2023/02/23 04:39:05;;;;;;;127.03;62.97;;;7.60;99.90;;;;;;7379166;19;20767;-66
2023/02/23 04:41:32;;;;;;;133.50;63.60;;;7.50;99.90;;;;;;7378608;19;20386;-66
2023/02/23 04:43:58;;;;;;;130.70;62.30;;;7.60;99.90;;;;;;7377080;19;20119;-65
2023/02/23 04:46:25;;;;;;;126.07;62.42;;;7.50;99.90;;;;;;7375514;19;20010;-66
2023/02/23 04:48:53;;;;;;;127.80;61.70;;;7.60;99.90;;;;;;7374991;19;20015;-66
2023/02/23 04:51:19;;;;;;;130.23;61.80;;;7.50;99.90;;;;;;7376983;19;20025;-65
2023/02/23 04:53:46;;;;;;;126.97;62.22;;;7.50;99.90;;;;;;7376050;19;20033;-65
2023/02/23 04:56:13;;;;;;;132.35;59.72;;;7.50;99.90;;;;;;7378961;19;20018;-65
2023/02/23 04:58:40;;;;;;;124.35;59.15;;;7.50;99.90;;;;;;7378001;19;20010;-65
2023/02/23 05:01:08;;;;;;;139.40;64.85;;;7.50;99.90;;;;;;7377551;19;20046;-66
2023/02/23 05:03:36;;;;;;;128.88;61.03;;;7.50;99.90;;;;;;7374286;19;20029;-66
2023/02/23 05:06:03;;;;;;;129.88;61.20;;;7.50;99.90;;;;;;7375568;19;20030;-64
2023/02/23 05:08:30;;;;;;;133.20;61.10;;;7.50;99.90;;;;;;7374751;19;20018;-63
2023/02/23 05:10:58;;;;;;;132.45;61.53;;;7.50;99.90;;;;;;7379068;19;20014;-63
2023/02/23 05:13:24;;;;;;;125.15;58.65;;;7.50;99.90;;;;;;7374282;19;20022;-65
2023/02/23 05:15:56;;;;;;;136.45;61.90;;;7.50;99.90;;;;;;7373213;19;20741;-65
2023/02/23 05:18:24;;;;;;;114.85;57.17;;;7.50;99.90;;;;;;7374361;19;20025;-63
2023/02/23 05:20:50;;;;;;;130.55;60.33;;;7.50;99.90;;;;;;7377915;19;20037;-64
2023/02/23 05:23:16;;;;;;;130.07;59.70;;;7.50;99.90;;;;;;7374796;19;20019;-63
2023/02/23 05:25:43;;;;;;;131.13;58.72;;;7.50;99.90;;;;;;7372380;19;20916;-64
2023/02/23 05:28:09;;;;;;;128.05;59.63;;;7.50;99.90;;;;;;7372298;19;20030;-63
2023/02/23 05:30:39;;;;;;;132.65;61.95;;;7.50;99.90;;;;;;7371641;19;20514;-64
2023/02/23 05:33:05;;;;;;;136.98;60.80;;;7.50;99.90;;;;;;7375980;19;20026;-64
2023/02/23 05:35:31;;;;;;;127.85;57.95;;;7.50;99.90;;;;;;7374425;19;20821;-64
2023/02/23 05:37:57;;;;;;;133.63;60.97;;;7.50;99.90;;;;;;7377366;19;20051;-64
2023/02/23 05:40:25;;;;;;;125.63;58.80;;;7.50;99.90;;;;;;7374510;19;20585;-64
2023/02/23 05:42:57;;;;;;;127.57;58.50;;;7.50;99.90;;;;;;7377113;19;20059;-63
2023/02/23 05:45:23;;;;;;;116.00;53.97;;;7.50;99.90;;;;;;7377000;19;20014;-64
2023/02/23 05:47:50;;;;;;;111.57;53.70;;;7.40;99.90;;;;;;7378690;19;20105;-64
2023/02/23 05:50:24;;;;;;;115.07;56.15;;;7.50;99.90;;;;;;7372560;19;20470;-64
2023/02/23 05:52:52;;;;;;;123.43;54.35;;;7.40;99.90;;;;;;7372700;19;20018;-63
2023/02/23 05:55:19;;;;;;;116.30;55.78;;;7.40;99.90;;;;;;7377872;19;20053;-64
2023/02/23 05:57:46;;;;;;;116.47;54.35;;;7.40;99.90;;;;;;7373273;19;20634;-65
2023/02/23 06:00:13;;;;;;;107.18;52.70;;;7.40;99.90;;;;;;7370139;19;20014;-65
2023/02/23 06:02:40;;;;;;;100.43;50.70;;;7.50;99.90;;;;;;7375732;19;20018;-64
2023/02/23 06:05:09;;;;;;;106.63;49.63;;;7.40;99.90;;;;;;7375405;19;20381;-65
2023/02/23 06:07:41;;;;;;;99.75;48.53;;;7.40;99.90;;;;;;7374842;19;20030;-64
2023/02/23 06:10:08;;;;;;;97.82;47.38;;;7.40;99.90;;;;;;7375173;19;20031;-64
2023/02/23 06:12:35;;;;;;;100.55;48.38;;;7.40;99.90;;;;;;7377369;19;20017;-64
2023/02/23 06:15:01;;;;;;;95.65;47.67;;;7.40;99.90;;;;;;7374441;19;20014;-65
2023/02/23 06:17:27;;;;;;;91.05;44.33;;;7.40;99.90;;;;;;7374708;19;20086;-64
2023/02/23 06:19:54;;;;;;;89.28;47.42;;;7.40;99.90;;;;;;7372472;19;20022;-64
2023/02/23 06:22:20;;;;;;;82.90;42.38;;;7.40;99.90;;;;;;7376478;19;20010;-64
2023/02/23 06:24:46;;;;;;;85.20;44.05;;;7.40;99.90;;;;;;7373014;19;20052;-64
2023/02/23 06:27:13;;;;;;;89.90;42.17;;;7.40;99.90;;;;;;7373967;19;20017;-65
2023/02/23 06:29:40;;;;;;;75.15;41.22;;;7.40;99.90;;;;;;7376817;19;20481;-64
2023/02/23 06:32:06;;;;;;;92.15;43.65;;;7.40;99.90;;;;;;7372927;19;20301;-64
2023/02/23 06:34:33;;;;;;;76.78;41.97;;;7.40;99.90;;;;;;7372461;19;20045;-64
2023/02/23 06:37:00;;;;;;;79.95;41.25;;;7.40;99.90;;;;;;7372740;19;20022;-64
2023/02/23 06:39:26;;;;;;;77.80;41.55;;;7.40;99.90;;;;;;7373869;19;20828;-64
2023/02/23 06:41:53;;;;;;;76.80;39.35;;;7.40;99.90;;;;;;7369681;19;20451;-64
2023/02/23 06:44:19;;;;;;;75.32;38.70;;;7.40;99.90;;;;;;7367850;19;20041;-64
2023/02/23 06:46:46;;;;;;;73.30;38.95;;;7.40;99.90;;;;;;7368803;19;20513;-65
2023/02/23 06:49:12;;;;;;;76.85;39.22;;;7.30;99.90;;;;;;7372654;19;20082;-65
2023/02/23 06:51:38;;;;;;;73.65;38.60;;;7.40;99.90;;;;;;7368836;19;20026;-65
2023/02/23 06:54:04;;;;;;;69.10;35.90;;;7.40;99.90;;;;;;7370996;19;20441;-64
2023/02/23 06:56:31;;;;;;;70.75;36.83;;;7.40;99.90;;;;;;7369046;19;20031;-65
2023/02/23 06:58:57;;;;;;;77.32;38.30;;;7.40;99.90;;;;;;7368640;19;20904;-65
2023/02/23 07:01:24;;;;;;;69.65;37.20;;;7.40;99.90;;;;;;7370012;19;20067;-65
2023/02/23 07:03:51;;;;;;;66.38;35.58;;;7.40;99.90;;;;;;7368654;19;20021;-65
2023/02/23 07:06:17;;;;;;;65.03;36.38;;;7.40;99.90;;;;;;7373276;19;20055;-65
2023/02/23 07:08:43;;;;;;;67.93;35.55;;;7.40;99.90;;;;;;7371398;19;20030;-65
2023/02/23 07:11:12;;;;;;;63.03;34.15;;;7.40;99.90;;;;;;7370425;19;20026;-64
2023/02/23 07:13:39;;;;;;;67.32;36.38;;;7.40;99.90;;;;;;7372125;19;20026;-64
2023/02/23 07:16:07;;;;;;;62.78;34.63;;;7.40;99.90;;;;;;7367374;19;20046;-65
2023/02/23 07:18:33;;;;;;;63.22;34.25;;;7.40;99.90;;;;;;7366284;19;20074;-65
2023/02/23 07:20:59;;;;;;;56.35;33.15;;;7.40;99.90;;;;;;7366115;19;20022;-65
2023/02/23 07:23:25;;;;;;;62.85;33.75;;;7.40;99.90;;;;;;7369873;19;20029;-65
2023/02/23 07:25:55;;;;;;;61.30;32.95;;;7.40;99.90;;;;;;7368401;19;20021;-65
2023/02/23 07:28:22;;;;;;;62.75;33.50;;;7.40;99.90;;;;;;7366305;19;20056;-64
2023/02/23 07:30:48;;;;;;;62.17;33.15;;;7.40;99.90;;;;;;7372464;19;20022;-65
2023/02/23 07:33:15;;;;;;;66.70;34.13;;;7.40;99.90;;;;;;7376061;19;20014;-65
2023/02/23 07:35:41;;;;;;;66.05;33.75;;;7.40;99.90;;;;;;7376894;19;20858;-65
2023/02/23 07:38:08;;;;;;;59.08;32.85;;;7.40;99.90;;;;;;7377574;19;20456;-65
2023/02/23 07:40:34;;;;;;;59.22;32.25;;;7.40;99.90;;;;;;7379042;19;20030;-65
2023/02/23 07:43:00;;;;;;;58.22;30.88;;;7.40;99.90;;;;;;7376776;19;20023;-64
2023/02/23 07:45:27;;;;;;;61.60;32.60;;;7.40;99.90;;;;;;7378639;19;20022;-64
2023/02/23 07:47:53;;;;;;;63.33;33.20;;;7.40;99.90;;;;;;7376947;19;20014;-64
2023/02/23 07:50:19;;;;;;;60.67;32.83;;;7.40;99.90;;;;;;7376922;19;20111;-64
2023/02/23 07:52:45;;;;;;;58.33;32.00;;;7.40;99.90;;;;;;7370712;19;20043;-65
2023/02/23 07:55:12;;;;;;;55.00;31.02;;;7.40;99.90;;;;;;7367993;19;20022;-64
2023/02/23 07:57:39;;;;;;;58.97;32.00;;;7.40;99.90;;;;;;7378091;19;20048;-64
2023/02/23 08:00:10;;;;;;;59.97;33.38;;;7.40;99.90;;;;;;7374420;19;20059;-64
2023/02/23 08:02:39;;;;;;;57.67;30.20;;;7.40;99.90;;;;;;7374934;19;20014;-65
2023/02/23 08:05:06;;;;;;;53.22;31.40;;;7.40;99.90;;;;;;7372522;19;20444;-64
2023/02/23 08:07:32;;;;;;;55.42;31.00;;;7.40;99.90;;;;;;7379532;19;22095;-64
2023/02/23 08:09:59;;;;;;;52.10;31.45;;;7.40;99.90;;;;;;7375044;19;20019;-65
2023/02/23 08:12:45;;;;;;;56.15;31.95;;;7.40;99.90;;;;;;7371409;19;20023;-64
2023/02/23 08:15:12;;;;;;;48.83;29.17;;;7.40;99.90;;;;;;7375499;19;20110;-65
2023/02/23 08:17:40;;;;;;;51.22;29.00;;;7.40;99.90;;;;;;7375674;19;20018;-65
2023/02/23 08:20:10;;;;;;;49.67;27.42;;;7.40;99.90;;;;;;7372055;19;20117;-64
2023/02/23 08:22:55;;;;;;;53.65;31.05;;;7.40;99.90;;;;;;7370563;19;20057;-64
2023/02/23 08:25:26;;;;;;;50.13;29.00;;;7.40;99.90;;;;;;7377579;19;20037;-65
2023/02/23 08:27:53;;;;;;;49.58;29.67;;;7.40;99.90;;;;;;7371665;19;20014;-64
2023/02/23 08:30:21;;;;;;;50.53;29.92;;;7.40;99.90;;;;;;7379756;19;20027;-64
2023/02/23 08:32:49;;;;;;;48.92;29.23;;;7.40;99.90;;;;;;7375483;19;20078;-65
2023/02/23 08:35:18;;;;;;;52.35;29.02;;;7.50;99.90;;;;;;7378011;19;20086;-65
2023/02/23 08:37:45;;;;;;;47.42;27.58;;;7.50;99.90;;;;;;7373510;19;20754;-65
2023/02/23 08:40:14;;;;;;;48.90;29.17;;;7.50;99.90;;;;;;7375510;19;20110;-64
2023/02/23 08:42:41;;;;;;;46.97;29.33;;;7.50;99.90;;;;;;7370138;19;20086;-65
2023/02/23 08:45:08;;;;;;;46.88;28.60;;;7.50;99.90;;;;;;7374503;19;20018;-65
2023/02/23 08:47:35;;;;;;;49.17;29.45;;;7.50;99.90;;;;;;7374607;19;20374;-66
2023/02/23 08:50:01;;;;;;;60.00;29.25;;;7.50;99.90;;;;;;7374422;19;20428;-65
2023/02/23 08:52:28;;;;;;;49.85;27.95;;;7.60;99.90;;;;;;7369577;19;20462;-65
2023/02/23 08:54:55;;;;;;;48.70;29.15;;;7.50;99.90;;;;;;7369871;19;20045;-65
2023/02/23 08:57:21;;;;;;;54.83;30.38;;;7.50;99.90;;;;;;7376118;19;20018;-65
2023/02/23 08:59:48;;;;;;;49.88;30.25;;;7.60;99.90;;;;;;7373201;19;20021;-65
2023/02/23 09:02:15;;;;;;;54.17;30.60;;;7.60;99.90;;;;;;7375617;19;20452;-65
2023/02/23 09:04:41;;;;;;;51.88;31.42;;;7.60;99.90;;;;;;7369749;19;20014;-65
2023/02/23 09:07:12;;;;;;;58.92;31.45;;;7.60;99.90;;;;;;7371850;19;20022;-64
2023/02/23 09:09:38;;;;;;;54.97;31.05;;;7.60;99.90;;;;;;7375914;19;20069;-64
2023/02/23 09:12:05;;;;;;;53.20;31.15;;;7.60;99.90;;;;;;7372622;19;20041;-64
2023/02/23 09:14:31;;;;;;;56.67;31.58;;;7.60;99.90;;;;;;7376875;19;20038;-64
2023/02/23 09:16:57;;;;;;;58.55;31.38;;;7.60;99.90;;;;;;7374341;19;20095;-65
2023/02/23 09:19:26;;;;;;;60.33;31.02;;;7.60;99.90;;;;;;7374277;19;20026;-65
2023/02/23 09:21:52;;;;;;;58.17;31.08;;;7.70;99.90;;;;;;7375090;19;20803;-65
2023/02/23 09:24:20;;;;;;;57.85;31.70;;;7.60;99.90;;;;;;7373191;19;20014;-64
2023/02/23 09:26:48;;;;;;;58.65;33.60;;;7.70;99.90;;;;;;7374411;19;20026;-65
2023/02/23 09:29:15;;;;;;;62.50;33.35;;;7.70;99.90;;;;;;7372216;19;20029;-65
2023/02/23 09:31:42;;;;;;;64.68;34.10;;;7.80;99.90;;;;;;7375721;19;20047;-66
2023/02/23 09:34:09;;;;;;;58.72;31.67;;;7.80;99.90;;;;;;7371169;19;20473;-65
2023/02/23 09:36:35;;;;;;;62.47;33.65;;;7.80;99.90;;;;;;7375225;19;20014;-65
2023/02/23 09:39:02;;;;;;;61.75;33.03;;;7.70;99.90;;;;;;7371344;19;20993;-65
2023/02/23 09:41:54;;;;;;;63.10;33.50;;;7.90;99.90;;;;;;7376240;19;20147;-65
2023/02/23 09:44:39;;;;;;;61.75;33.60;;;7.90;99.90;;;;;;7370025;19;20499;-65
2023/02/23 09:47:13;;;;;;;64.53;32.78;;;7.90;99.90;;;;;;7371914;19;20022;-66
2023/02/23 09:49:43;;;;;;;62.30;35.40;;;8.00;99.90;;;;;;7376644;19;20053;-66
2023/02/23 09:52:19;;;;;;;56.35;33.47;;;8.00;99.90;;;;;;7374837;19;20405;-64
2023/02/23 09:54:46;;;;;;;58.38;33.63;;;8.10;99.90;;;;;;7369510;19;20018;-65
2023/02/23 09:57:18;;;;;;;58.38;31.80;;;8.10;99.90;;;;;;7373419;19;20034;-65
2023/02/23 09:59:45;;;;;;;58.13;33.05;;;8.20;99.90;;;;;;7371363;19;20022;-65
2023/02/23 10:02:20;;;;;;;60.15;31.40;;;8.10;99.90;;;;;;7374238;19;20021;-65
2023/02/23 10:04:50;;;;;;;62.03;33.00;;;8.20;99.90;;;;;;7370808;19;20090;-65
2023/02/23 10:07:30;;;;;;;58.38;33.30;;;8.20;99.90;;;;;;7375171;19;20018;-65
2023/02/23 10:10:12;;;;;;;52.53;31.33;;;8.30;99.90;;;;;;7373189;19;20840;-65
2023/02/23 10:13:08;;;;;;;60.40;34.60;;;8.40;99.90;;;;;;7374715;19;20774;-65
2023/02/23 10:15:44;;;;;;;57.90;31.10;;;8.40;99.90;;;;;;7372671;19;20014;-65
2023/02/23 10:18:26;;;;;;;52.53;31.20;;;8.50;99.90;;;;;;7371782;19;20022;-65
2023/02/23 10:21:04;;;;;;;;;;;8.50;99.90;;;;;;7368695;19;20021;-65
2023/02/23 10:23:42;;;;;;;51.13;28.98;;;8.50;99.90;;;;;;7369243;19;19926;-65
2023/02/23 10:26:20;;;;;;;48.38;30.80;;;8.50;99.90;;;;;;7370500;19;20021;-65
2023/02/23 10:28:47;;;;;;;50.15;29.10;;;8.60;99.90;;;;;;7369037;19;20375;-65
2023/02/23 10:31:36;;;;;;;49.17;28.90;;;8.50;99.90;;;;;;7367918;19;20015;-65
2023/02/23 10:34:08;;;;;;;46.63;25.75;;;8.40;99.90;;;;;;7367048;19;20057;-64
2023/02/23 10:36:40;;;;;;;46.42;28.35;;;8.40;99.90;;;;;;7368602;19;20535;-65
2023/02/23 10:39:07;;;;;;;50.15;28.08;;;8.40;99.90;;;;;;7367792;19;20026;-65
2023/02/23 10:41:35;;;;;;;52.25;29.20;;;8.40;99.90;;;;;;7370845;19;20030;-65
2023/02/23 10:44:05;;;;;;;53.65;30.25;;;8.40;99.90;;;;;;7363029;19;20015;-65
2023/02/23 10:46:38;;;;;;;55.30;29.35;;;8.40;99.90;;;;;;7373258;19;20030;-64
2023/02/23 10:49:09;;;;;;;49.88;28.17;;;8.40;99.90;;;;;;7369865;19;20361;-65
2023/02/23 10:51:38;;;;;;;57.20;29.08;;;8.30;99.90;;;;;;7370917;19;20923;-65
2023/02/23 10:54:33;;;;;;;56.22;30.27;;;8.30;99.90;;;;;;7365462;19;20018;-65
2023/02/23 10:56:59;;;;;;;50.88;27.85;;;8.30;99.90;;;;;;7368343;19;20029;-64
2023/02/23 10:59:25;;;;;;;61.70;30.15;;;8.40;99.90;;;;;;7368468;19;20589;-65
2023/02/23 11:01:52;;;;;;;56.30;29.73;;;8.40;99.90;;;;;;7368009;19;20798;-65
2023/02/23 11:04:33;;;;;;;46.58;25.98;;;8.40;99.90;;;;;;7366241;19;20768;-65
2023/02/23 11:07:28;;;;;;;50.63;28.50;;;8.50;99.90;;;;;;7366777;19;20014;-65
2023/02/23 11:10:17;;;;;;;49.97;27.27;;;8.50;99.90;;;;;;7367155;19;20026;-65
2023/02/23 11:12:43;;;;;;;52.65;29.23;;;8.50;99.90;;;;;;7371050;19;20041;-64
2023/02/23 11:15:34;;;;;;;47.35;29.02;;;8.50;99.90;;;;;;7370421;19;20435;-65
2023/02/23 11:18:03;;;;;;;49.53;27.10;;;8.60;99.90;;;;;;7367735;19;20032;-65
2023/02/23 11:20:39;;;;;;;56.38;27.80;;;8.50;99.90;;;;;;7367844;19;20055;-65
2023/02/23 11:23:42;;;;;;;57.25;30.80;;;8.50;99.90;;;;;;7367123;19;20015;-65
2023/02/23 11:26:39;;;;;;;57.63;26.83;;;8.60;99.90;;;;;;7366537;19;20026;-65
2023/02/23 11:29:40;;;;;;;56.45;29.52;;;8.60;99.90;;;;;;7362675;19;20863;-65
2023/02/23 11:32:18;;;;;;;58.70;28.50;;;8.60;99.90;;;;;;7366886;19;20121;-65
2023/02/23 11:34:48;;;;;;;58.20;29.83;;;8.70;99.90;;;;;;7364354;19;20070;-65
2023/02/23 11:37:26;;;;;;;52.63;27.13;;;8.70;99.90;;;;;;7367950;19;20022;-65
2023/02/23 11:39:55;;;;;;;49.97;28.55;;;8.80;99.90;;;;;;7367700;19;20021;-65
2023/02/23 11:42:26;;;;;;;60.85;33.00;;;8.90;99.90;;;;;;7369351;19;20094;-65
2023/02/23 11:45:02;;;;;;;58.80;30.83;;;9.00;99.90;;;;;;7362514;19;20018;-65
2023/02/23 11:47:30;;;;;;;57.67;29.98;;;9.10;99.90;;;;;;7372149;19;20018;-65
2023/02/23 11:49:59;;;;;;;64.38;29.88;;;9.10;99.90;;;;;;7368287;19;20373;-66
2023/02/23 11:52:30;;;;;;;56.28;30.83;;;9.20;99.90;;;;;;7362884;19;20019;-65
2023/02/23 11:55:05;;;;;;;53.20;29.45;;;9.20;99.90;;;;;;7365166;19;20018;-65
2023/02/23 11:57:34;;;;;;;51.25;30.63;;;9.20;99.90;;;;;;7367182;19;20043;-65
2023/02/23 12:00:21;;;;;;;52.08;29.73;;;9.30;99.90;;;;;;7367151;19;20437;-65
2023/02/23 12:03:16;;;;;;;60.63;31.52;;;9.20;99.90;;;;;;7365397;19;20014;-65
2023/02/23 12:05:51;;;;;;;60.35;31.65;;;9.10;99.90;;;;;;7365168;19;20078;-65
2023/02/23 12:08:45;;;;;;;58.65;31.80;;;9.10;99.90;;;;;;7369672;19;20021;-65
2023/02/23 12:11:22;;;;;;;62.13;32.05;;;9.00;99.90;;;;;;7370709;19;20025;-65
2023/02/23 12:14:24;;;;;;;63.88;32.83;;;9.00;99.90;;;;;;7365415;19;20121;-65
2023/02/23 12:17:17;;;;;;;59.67;31.75;;;8.90;99.90;;;;;;7365252;19;20018;-65
2023/02/23 12:19:55;;;;;;;64.20;31.15;;;8.90;99.90;;;;;;7374150;19;20092;-65
2023/02/23 12:22:44;;;;;;;61.22;32.65;;;9.00;99.90;;;;;;7369856;19;20520;-65
2023/02/23 12:25:25;;;;;;;58.17;31.20;;;8.90;99.90;;;;;;7368373;19;20018;-65
2023/02/23 12:27:57;;;;;;;58.00;31.50;;;9.00;99.90;;;;;;7371298;19;20089;-65
2023/02/23 12:30:36;;;;;;;61.00;31.58;;;8.90;99.90;;;;;;7371524;19;20025;-67
2023/02/23 12:33:14;;;;;;;62.80;33.00;;;8.80;99.90;;;;;;7371788;19;21230;-65
2023/02/23 12:35:58;;;;;;;61.42;31.50;;;8.80;99.90;;;;;;7368431;19;20025;-65
2023/02/23 12:38:51;;;;;;;58.35;31.70;;;8.80;99.90;;;;;;7370520;19;20027;-65
2023/02/23 12:41:39;;;;;;;61.25;31.42;;;8.80;99.90;;;;;;7371501;19;20355;-65
2023/02/23 12:44:27;;;;;;;63.13;30.67;;;8.80;99.90;;;;;;7370699;19;20029;-65
2023/02/23 12:46:56;;;;;;;65.07;31.45;;;8.90;99.90;;;;;;7370288;19;20014;-65
2023/02/23 12:50:06;;;;;;;68.15;32.78;;;8.90;99.90;;;;;;7371831;19;20025;-64
2023/02/23 12:52:56;;;;;;;65.65;30.95;;;9.00;99.90;;;;;;7371112;19;20023;-64
2023/02/23 12:55:40;;;;;;;65.13;30.95;;;9.10;99.90;;;;;;7368100;19;20018;-65
2023/02/23 12:58:23;;;;;;;66.22;31.65;;;9.10;99.90;;;;;;7371047;19;20026;-64
2023/02/23 13:00:57;;;;;;;64.65;29.55;;;9.10;99.90;;;;;;7371416;19;20018;-64
2023/02/23 13:03:49;;;;;;;66.45;30.20;;;9.10;99.90;;;;;;7371108;19;20026;-64
2023/02/23 13:06:22;;;;;;;68.05;31.15;;;9.10;99.90;;;;;;7369830;19;20092;-64
2023/02/23 13:09:10;;;;;;;66.25;29.80;;;9.30;99.90;;;;;;7372743;19;20070;-66
2023/02/23 13:12:05;;;;;;;62.75;30.02;;;9.40;99.90;;;;;;7370411;19;20094;-64
2023/02/23 13:14:44;;;;;;;70.28;29.48;;;9.40;99.90;;;;;;7369791;19;20090;-64
2023/02/23 13:17:28;;;;;;;62.28;28.65;;;9.50;99.90;;;;;;7367096;19;20019;-64
2023/02/23 13:20:23;;;;;;;68.60;27.83;;;9.50;99.90;;;;;;7367223;19;20022;-64
2023/02/23 13:23:12;;;;;;;64.15;28.73;;;9.50;99.90;;;;;;7368869;19;20030;-65
2023/02/23 13:25:49;;;;;;;56.53;24.65;;;9.50;99.90;;;;;;7373202;19;20051;-67
2023/02/23 13:28:44;;;;;;;53.38;23.67;;;9.50;99.90;;;;;;7367479;19;20528;-66
2023/02/23 13:31:21;;;;;;;54.55;23.27;;;9.50;99.90;;;;;;7369307;19;20106;-66
2023/02/23 13:33:49;;;;;;;55.17;23.80;;;9.50;99.90;;;;;;7373484;19;20010;-66
2023/02/23 13:36:16;;;;;;;58.03;23.40;;;9.50;99.90;;;;;;7372034;19;20035;-66
2023/02/23 13:39:04;;;;;;;57.60;22.95;;;9.50;99.90;;;;;;7375061;19;20023;-66
2023/02/23 13:41:42;;;;;;;55.45;24.20;;;9.40;99.90;;;;;;7371950;19;20022;-66
2023/02/23 13:44:34;;;;;;;62.95;25.63;;;9.30;99.90;;;;;;7371240;19;20045;-65
2023/02/23 13:47:26;;;;;;;60.25;23.70;;;9.30;99.90;;;;;;7372064;19;20506;-66
2023/02/23 13:50:21;;;;;;;66.10;25.90;;;9.20;99.90;;;;;;7370479;19;20022;-65
2023/02/23 13:52:47;;;;;;;63.05;25.00;;;9.20;99.90;;;;;;7369894;19;20602;-65
2023/02/23 13:55:25;;;;;;;59.67;24.83;;;9.20;99.90;;;;;;7372431;19;20033;-65
2023/02/23 13:58:10;;;;;;;66.60;25.90;;;9.20;99.90;;;;;;7373577;19;20018;-66
2023/02/23 14:00:37;;;;;;;58.10;24.77;;;9.10;99.90;;;;;;7373599;19;20527;-65
2023/02/23 14:03:06;;;;;;;63.72;25.98;;;9.20;99.90;;;;;;7368871;19;20024;-65
2023/02/23 14:05:42;;;;;;;68.50;28.17;;;9.10;99.90;;;;;;7373138;19;20011;-64
2023/02/23 14:08:46;;;;;;;68.13;27.08;;;9.10;99.90;;;;;;7374063;19;20082;-65
2023/02/23 14:11:28;;;;;;;70.07;28.17;;;9.00;99.90;;;;;;7370078;19;20014;-64
2023/02/23 14:14:02;;;;;;;72.00;28.85;;;9.00;99.90;;;;;;7370119;19;20014;-64
2023/02/23 14:16:29;;;;;;;80.18;30.60;;;8.90;99.90;;;;;;7365659;19;20018;-64
2023/02/23 14:19:08;;;;;;;74.75;29.58;;;9.00;99.90;;;;;;7371546;19;20023;-64
2023/02/23 14:21:43;;;;;;;71.60;28.70;;;9.00;99.90;;;;;;7371801;19;20049;-64
2023/02/23 14:24:21;;;;;;;83.10;33.97;;;9.00;99.90;;;;;;7367857;19;20015;-64
2023/02/23 14:27:18;;;;;;;80.60;31.65;;;9.00;99.90;;;;;;7373098;19;20022;-64